Time;durP1;ratioP1;P1;durP2;ratioP2;P2;SDS_P1;SDS_P2;PMS_P1;PMS_P2;Temp;Humidity;BMP_temperature;BMP_pressure;BME280_temperature;BME280_humidity;BME280_pressure;Samples;Min_cycle;Max_cycle;Signal;HPM_P1;HPM_P2
2022/02/20 00:02:10;;;;;;;5.75;1.00;;;;;;;;;;5059605;28;20025;-82
2022/02/20 00:04:36;;;;;;;5.50;1.10;;;;;;;;;;5332425;23;20052;-83
2022/02/20 00:07:01;;;;;;;8.50;1.35;;;;;;;;;;5070530;22;20040;-83
2022/02/20 00:19:48;;;;;;;4.55;0.68;;;;;;;;;;5334306;23;20048;-83
2022/02/20 00:29:59;;;;;;;5.15;1.30;;;;;;;;;;5904322;23;20029;-82
2022/02/20 00:32:28;;;;;;;11.30;1.15;;;;;;;;;;5037390;28;20002;-82
2022/02/20 00:34:53;;;;;;;4.53;1.08;;;;;;;;;;5037467;28;20022;-82
2022/02/20 00:37:19;;;;;;;6.72;1.10;;;;;;;;;;5037680;28;20041;-82
2022/02/20 00:39:45;;;;;;;4.95;1.05;;;;;;;;;;5036851;28;20021;-82
2022/02/20 00:42:20;;;;;;;3.00;0.93;;;;;;;;;;5036620;28;20085;-82
2022/02/20 00:45:26;;;;;;;5.63;1.23;;;;;;;;;;5033303;28;20034;-83
2022/02/20 00:47:55;;;;;;;5.47;1.52;;;;;;;;;;5038280;28;20006;-83
2022/02/20 00:50:22;;;;;;;5.68;1.20;;;;;;;;;;5038653;28;20021;-82
2022/02/20 00:52:51;;;;;;;3.25;1.10;;;;;;;;;;5037611;28;20026;-82
2022/02/20 00:55:17;;;;;;;2.88;1.02;;;;;;;;;;5038067;28;20037;-82
2022/02/20 00:57:45;;;;;;;6.43;1.35;;;;;;;;;;5034198;28;20030;-82
2022/02/20 01:00:11;;;;;;;2.78;1.13;;;;;;;;;;5036105;28;20045;-82
2022/02/20 01:02:37;;;;;;;6.82;1.27;;;;;;;;;;5034249;28;20030;-82
2022/02/20 01:05:03;;;;;;;6.28;0.90;;;;;;;;;;5036240;28;20017;-82
2022/02/20 01:07:31;;;;;;;3.28;1.10;;;;;;;;;;5036136;28;20022;-82
2022/02/20 01:09:57;;;;;;;2.25;0.90;;;;;;;;;;5034455;28;20026;-82
2022/02/20 01:12:23;;;;;;;3.83;0.95;;;;;;;;;;5033996;28;20025;-82
2022/02/20 01:14:48;;;;;;;4.22;1.05;;;;;;;;;;5035138;28;20074;-82
2022/02/20 01:17:14;;;;;;;5.25;0.90;;;;;;;;;;5035763;28;20021;-82
2022/02/20 01:19:44;;;;;;;6.28;1.10;;;;;;;;;;5035972;28;20018;-82
2022/02/20 01:22:09;;;;;;;2.92;1.02;;;;;;;;;;5033877;28;20018;-82
2022/02/20 01:24:35;;;;;;;2.25;0.90;;;;;;;;;;5036420;28;20025;-83
2022/02/20 01:27:01;;;;;;;3.60;0.93;;;;;;;;;;5035532;28;20422;-82
2022/02/20 01:29:27;;;;;;;3.97;1.10;;;;;;;;;;5034365;28;20026;-82
2022/02/20 01:31:55;;;;;;;6.35;1.30;;;;;;;;;;5033247;28;20021;-82
2022/02/20 01:34:21;;;;;;;3.33;0.93;;;;;;;;;;5035224;28;20025;-81
2022/02/20 01:36:46;;;;;;;2.70;1.00;;;;;;;;;;5033982;28;20021;-81
2022/02/20 01:39:12;;;;;;;4.18;1.20;;;;;;;;;;5033075;28;20370;-82
2022/02/20 01:41:40;;;;;;;5.18;1.08;;;;;;;;;;5033647;28;20014;-82
2022/02/20 01:44:06;;;;;;;3.72;1.02;;;;;;;;;;5035637;28;20026;-82
2022/02/20 01:46:32;;;;;;;2.80;0.82;;;;;;;;;;5035132;28;20022;-82
2022/02/20 01:48:57;;;;;;;2.33;0.90;;;;;;;;;;5034392;28;20014;-82
2022/02/20 01:51:23;;;;;;;2.50;0.80;;;;;;;;;;5034089;28;20036;-82
2022/02/20 01:53:48;;;;;;;3.08;1.00;;;;;;;;;;5033457;28;20029;-81
2022/02/20 01:56:13;;;;;;;4.35;1.13;;;;;;;;;;5032322;28;20025;-82
2022/02/20 01:58:40;;;;;;;3.50;0.77;;;;;;;;;;5032097;28;20033;-81
2022/02/20 02:01:05;;;;;;;1.48;0.68;;;;;;;;;;5032288;28;20018;-81
2022/02/20 02:03:31;;;;;;;2.03;0.77;;;;;;;;;;5031283;28;20089;-81
2022/02/20 02:05:56;;;;;;;3.40;0.80;;;;;;;;;;5030540;28;20025;-81
2022/02/20 02:08:21;;;;;;;2.65;0.60;;;;;;;;;;5030724;28;20025;-81
2022/02/20 02:10:47;;;;;;;3.55;0.80;;;;;;;;;;5030264;28;20025;-80
2022/02/20 02:13:12;;;;;;;3.13;0.80;;;;;;;;;;5030517;28;20049;-82
2022/02/20 02:15:50;;;;;;;1.80;0.70;;;;;;;;;;5031732;28;20017;-81
2022/02/20 02:18:15;;;;;;;3.20;0.73;;;;;;;;;;5034728;28;20098;-81
2022/02/20 02:20:46;;;;;;;3.03;0.50;;;;;;;;;;5034831;28;20014;-82
2022/02/20 02:23:17;;;;;;;2.72;0.88;;;;;;;;;;5037346;28;20008;-82
2022/02/20 02:28:26;;;;;;;1.85;0.82;;;;;;;;;;6037498;23;20013;-82
2022/02/20 02:43:54;;;;;;;5.07;0.75;;;;;;;;;;5958901;22;20068;-82
2022/02/20 02:46:26;;;;;;;2.95;0.70;;;;;;;;;;5504089;23;20955;-82
2022/02/20 02:48:55;;;;;;;2.90;0.60;;;;;;;;;;5060822;28;20049;-82
2022/02/20 02:51:21;;;;;;;1.75;0.55;;;;;;;;;;5041049;28;20002;-82
2022/02/20 02:53:47;;;;;;;1.77;0.50;;;;;;;;;;5041045;28;20037;-81
2022/02/20 02:56:13;;;;;;;4.30;0.70;;;;;;;;;;5038719;28;20504;-82
2022/02/20 02:58:39;;;;;;;2.22;0.70;;;;;;;;;;5035463;28;20022;-82
2022/02/20 03:01:05;;;;;;;4.55;0.90;;;;;;;;;;5038467;28;20022;-83
2022/02/20 03:03:31;;;;;;;2.38;0.68;;;;;;;;;;5037650;28;20017;-82
2022/02/20 03:06:00;;;;;;;4.53;1.10;;;;;;;;;;5038716;28;20018;-83
2022/02/20 03:08:26;;;;;;;2.38;0.60;;;;;;;;;;5038171;28;20078;-82
2022/02/20 03:10:54;;;;;;;7.05;0.98;;;;;;;;;;5038170;28;20018;-82
2022/02/20 03:13:20;;;;;;;1.55;0.60;;;;;;;;;;5037261;28;20049;-82
2022/02/20 03:15:46;;;;;;;2.17;0.55;;;;;;;;;;5035553;28;20018;-82
2022/02/20 03:18:11;;;;;;;14.82;1.20;;;;;;;;;;5036587;28;20018;-83
2022/02/20 03:20:37;;;;;;;1.58;0.68;;;;;;;;;;5036824;28;20014;-82
2022/02/20 03:23:02;;;;;;;3.30;1.13;;;;;;;;;;5035546;28;20022;-82
2022/02/20 03:25:31;;;;;;;6.57;0.85;;;;;;;;;;5035102;28;20077;-82
2022/02/20 03:27:57;;;;;;;2.85;0.70;;;;;;;;;;5035683;28;20041;-81
2022/02/20 03:30:24;;;;;;;3.50;0.63;;;;;;;;;;5034303;28;20014;-82
2022/02/20 03:32:53;;;;;;;1.98;0.47;;;;;;;;;;5032680;28;20048;-82
2022/02/20 03:35:19;;;;;;;2.95;0.75;;;;;;;;;;5031407;28;20026;-82
2022/02/20 03:37:44;;;;;;;3.05;1.20;;;;;;;;;;5029450;28;20029;-81
2022/02/20 03:40:10;;;;;;;3.92;0.88;;;;;;;;;;5030161;28;20041;-82
2022/02/20 03:42:35;;;;;;;2.63;0.70;;;;;;;;;;5031479;28;20094;-81
2022/02/20 03:45:03;;;;;;;3.40;0.88;;;;;;;;;;5030493;28;20018;-81
2022/02/20 03:47:31;;;;;;;4.75;0.90;;;;;;;;;;5030780;28;20053;-81
2022/02/20 03:49:56;;;;;;;6.88;1.13;;;;;;;;;;5030190;28;20047;-81
2022/02/20 03:52:22;;;;;;;5.10;0.82;;;;;;;;;;5029567;28;20608;-82
2022/02/20 03:54:47;;;;;;;1.83;0.70;;;;;;;;;;5029820;28;20021;-81
2022/02/20 03:57:12;;;;;;;3.58;0.90;;;;;;;;;;5029785;28;20028;-82
2022/02/20 03:59:37;;;;;;;4.78;0.70;;;;;;;;;;5028115;28;20021;-81
2022/02/20 04:02:03;;;;;;;4.53;0.65;;;;;;;;;;5027929;28;20450;-81
2022/02/20 04:04:28;;;;;;;3.45;0.70;;;;;;;;;;5028205;28;20021;-81
2022/02/20 04:06:54;;;;;;;3.75;0.90;;;;;;;;;;5027529;28;20393;-82
2022/02/20 04:09:19;;;;;;;4.78;0.88;;;;;;;;;;5030713;28;20074;-81
2022/02/20 04:11:44;;;;;;;7.00;0.80;;;;;;;;;;5031310;28;20014;-80
2022/02/20 04:14:09;;;;;;;1.50;0.70;;;;;;;;;;5031715;28;20052;-81
2022/02/20 04:16:35;;;;;;;7.13;1.05;;;;;;;;;;5032063;28;20026;-81
2022/02/20 04:19:00;;;;;;;5.63;0.95;;;;;;;;;;5033822;28;20017;-81
2022/02/20 04:21:25;;;;;;;5.65;1.02;;;;;;;;;;5031810;28;20013;-81
2022/02/20 04:23:53;;;;;;;5.00;1.33;;;;;;;;;;5030314;28;20026;-81
2022/02/20 04:26:21;;;;;;;5.15;0.95;;;;;;;;;;5031875;28;20482;-81
2022/02/20 04:28:47;;;;;;;8.43;1.45;;;;;;;;;;5031688;28;20014;-81
2022/02/20 04:31:17;;;;;;;6.95;1.00;;;;;;;;;;5028115;28;20030;-82
2022/02/20 04:33:42;;;;;;;3.00;0.80;;;;;;;;;;5030353;28;20018;-82
2022/02/20 04:36:10;;;;;;;4.72;1.08;;;;;;;;;;5032274;28;20026;-82
2022/02/20 04:38:44;;;;;;;4.45;1.00;;;;;;;;;;5032847;28;20020;-82
2022/02/20 04:41:10;;;;;;;4.53;0.70;;;;;;;;;;5033639;28;20037;-82
2022/02/20 04:43:35;;;;;;;3.85;1.00;;;;;;;;;;5035506;28;20017;-83
2022/02/20 04:46:00;;;;;;;5.60;1.45;;;;;;;;;;5037162;28;20022;-82
2022/02/20 04:48:27;;;;;;;4.07;0.70;;;;;;;;;;5036144;28;20010;-82
2022/02/20 04:50:53;;;;;;;5.13;1.17;;;;;;;;;;5034630;28;20014;-81
2022/02/20 04:53:19;;;;;;;2.53;1.00;;;;;;;;;;5033259;28;20009;-82
2022/02/20 04:55:50;;;;;;;4.35;1.00;;;;;;;;;;5034635;28;20082;-82
2022/02/20 04:58:18;;;;;;;6.40;1.17;;;;;;;;;;5034383;28;20045;-83
2022/02/20 05:00:44;;;;;;;5.20;1.42;;;;;;;;;;5033525;28;20045;-82
2022/02/20 05:03:12;;;;;;;2.63;0.90;;;;;;;;;;5033004;28;20085;-82
2022/02/20 05:05:37;;;;;;;6.63;1.15;;;;;;;;;;5032733;28;20059;-82
2022/02/20 05:08:04;;;;;;;2.60;0.70;;;;;;;;;;5031936;28;20018;-82
2022/02/20 05:10:29;;;;;;;5.45;1.20;;;;;;;;;;5031321;28;20049;-81
2022/02/20 05:12:54;;;;;;;3.08;1.10;;;;;;;;;;5045443;22;20042;-80
2022/02/20 05:15:20;;;;;;;2.22;0.90;;;;;;;;;;5041978;28;20056;-82
2022/02/20 05:17:45;;;;;;;3.45;1.30;;;;;;;;;;5040869;28;20023;-81
2022/02/20 05:20:10;;;;;;;3.85;0.93;;;;;;;;;;5041249;28;20071;-82
2022/02/20 05:22:35;;;;;;;3.17;1.50;;;;;;;;;;5039531;28;20041;-81
2022/02/20 05:25:01;;;;;;;4.82;1.17;;;;;;;;;;5039253;28;20025;-81
2022/02/20 05:27:27;;;;;;;4.00;1.25;;;;;;;;;;5036098;28;20068;-82
2022/02/20 05:29:52;;;;;;;5.28;1.30;;;;;;;;;;5036659;28;20033;-81
2022/02/20 05:32:23;;;;;;;3.13;0.88;;;;;;;;;;5037138;28;20122;-81
2022/02/20 05:34:52;;;;;;;3.95;1.00;;;;;;;;;;5037004;28;20550;-80
2022/02/20 05:37:20;;;;;;;5.57;1.10;;;;;;;;;;5037507;28;20029;-82
2022/02/20 05:39:45;;;;;;;3.55;1.17;;;;;;;;;;5037501;28;20017;-81
2022/02/20 05:42:16;;;;;;;7.35;1.30;;;;;;;;;;5037222;28;20051;-81
2022/02/20 05:44:42;;;;;;;5.35;1.70;;;;;;;;;;5036217;28;20052;-81
2022/02/20 05:47:10;;;;;;;4.00;1.36;;;;;;;;;;5034891;28;20017;-80
2022/02/20 05:49:35;;;;;;;5.85;1.42;;;;;;;;;;5036077;28;20081;-81
2022/02/20 05:52:01;;;;;;;8.48;1.77;;;;;;;;;;5034967;28;20133;-81
2022/02/20 05:54:26;;;;;;;4.35;1.33;;;;;;;;;;5035269;28;20025;-80
2022/02/20 05:56:51;;;;;;;8.23;2.25;;;;;;;;;;5033471;28;20024;-81
2022/02/20 05:59:16;;;;;;;5.65;1.30;;;;;;;;;;5033752;28;20021;-81
2022/02/20 06:01:41;;;;;;;3.55;1.50;;;;;;;;;;5034620;28;20017;-80
2022/02/20 06:04:07;;;;;;;2.70;1.60;;;;;;;;;;5034352;28;20035;-81
2022/02/20 06:06:32;;;;;;;3.10;1.13;;;;;;;;;;5037829;28;20021;-80
2022/02/20 06:09:00;;;;;;;4.63;1.60;;;;;;;;;;5036130;28;20622;-79
2022/02/20 06:11:26;;;;;;;4.15;1.40;;;;;;;;;;5036710;28;20088;-80
2022/02/20 06:13:51;;;;;;;2.72;1.10;;;;;;;;;;5036069;28;20073;-80
2022/02/20 06:16:17;;;;;;;5.90;1.10;;;;;;;;;;5036904;28;20433;-80
2022/02/20 06:18:42;;;;;;;6.15;1.42;;;;;;;;;;5035075;28;20018;-81
2022/02/20 06:21:07;;;;;;;3.60;1.08;;;;;;;;;;5036684;28;20020;-81
2022/02/20 06:23:32;;;;;;;5.55;1.27;;;;;;;;;;5036694;28;20075;-80
2022/02/20 06:25:59;;;;;;;5.35;1.10;;;;;;;;;;5037174;28;20017;-80
2022/02/20 06:28:24;;;;;;;2.80;1.20;;;;;;;;;;5037199;28;20033;-80
2022/02/20 06:30:49;;;;;;;8.02;1.73;;;;;;;;;;5037118;28;20022;-80
2022/02/20 06:33:14;;;;;;;5.30;1.20;;;;;;;;;;5036411;28;20021;-80
2022/02/20 06:35:39;;;;;;;4.97;1.10;;;;;;;;;;5036628;28;20543;-80
2022/02/20 06:38:05;;;;;;;3.72;1.00;;;;;;;;;;5036731;28;20017;-80
2022/02/20 06:40:31;;;;;;;5.00;1.02;;;;;;;;;;5036729;28;20094;-80
2022/02/20 06:42:56;;;;;;;6.88;1.27;;;;;;;;;;5036109;28;20445;-80
2022/02/20 06:45:21;;;;;;;5.53;1.42;;;;;;;;;;5037508;28;20017;-80
2022/02/20 06:47:46;;;;;;;6.93;1.45;;;;;;;;;;5036381;28;20113;-80
2022/02/20 06:50:12;;;;;;;6.95;1.70;;;;;;;;;;5038862;28;20026;-80
2022/02/20 06:52:37;;;;;;;3.80;1.55;;;;;;;;;;5038468;28;20025;-80
2022/02/20 06:55:02;;;;;;;10.57;2.00;;;;;;;;;;5038492;28;20021;-80
2022/02/20 06:57:27;;;;;;;5.43;1.90;;;;;;;;;;5036533;28;20024;-80
2022/02/20 06:59:52;;;;;;;7.13;1.77;;;;;;;;;;5035511;28;20013;-80
2022/02/20 07:02:18;;;;;;;5.40;1.85;;;;;;;;;;5035221;28;20036;-80
2022/02/20 07:04:43;;;;;;;6.20;2.08;;;;;;;;;;5037121;28;20021;-80
2022/02/20 07:07:08;;;;;;;9.18;2.45;;;;;;;;;;5037360;28;20037;-79
2022/02/20 07:09:33;;;;;;;4.28;1.70;;;;;;;;;;5037375;28;20017;-80
2022/02/20 07:11:58;;;;;;;4.95;1.90;;;;;;;;;;5036265;28;20029;-80
2022/02/20 07:14:24;;;;;;;4.97;1.67;;;;;;;;;;5036407;28;20512;-80
2022/02/20 07:16:49;;;;;;;7.68;1.98;;;;;;;;;;5036784;28;20494;-79
2022/02/20 07:19:14;;;;;;;5.90;1.85;;;;;;;;;;5037347;28;20018;-80
2022/02/20 07:21:39;;;;;;;2.70;1.40;;;;;;;;;;5036564;28;20060;-80
2022/02/20 07:24:05;;;;;;;3.75;1.30;;;;;;;;;;5037877;28;20028;-80
2022/02/20 07:26:32;;;;;;;6.82;1.42;;;;;;;;;;5039739;28;20400;-80
2022/02/20 07:28:57;;;;;;;3.83;1.55;;;;;;;;;;5040171;28;20021;-80
2022/02/20 07:31:23;;;;;;;2.95;1.23;;;;;;;;;;5040480;28;20101;-80
2022/02/20 07:33:52;;;;;;;6.13;1.60;;;;;;;;;;5039125;28;20075;-79
2022/02/20 07:36:17;;;;;;;5.13;1.45;;;;;;;;;;5036502;28;20025;-80
2022/02/20 07:38:43;;;;;;;4.93;1.30;;;;;;;;;;5036001;28;20017;-80
2022/02/20 07:41:08;;;;;;;6.78;1.50;;;;;;;;;;5036226;28;20014;-80
2022/02/20 07:43:33;;;;;;;4.50;1.38;;;;;;;;;;5035562;28;20480;-78
2022/02/20 07:45:58;;;;;;;5.95;1.60;;;;;;;;;;5035935;28;20028;-79
2022/02/20 07:48:23;;;;;;;6.05;1.45;;;;;;;;;;5035812;28;20029;-79
2022/02/20 07:50:48;;;;;;;2.25;1.02;;;;;;;;;;5034531;28;20388;-80
2022/02/20 07:53:14;;;;;;;9.32;2.13;;;;;;;;;;5039353;28;20025;-78
2022/02/20 07:55:39;;;;;;;5.07;1.55;;;;;;;;;;5037581;28;20064;-80
2022/02/20 07:58:06;;;;;;;4.38;1.50;;;;;;;;;;5038626;28;20481;-79
2022/02/20 08:00:32;;;;;;;4.05;1.38;;;;;;;;;;5038581;28;20027;-79
2022/02/20 08:02:57;;;;;;;5.00;1.50;;;;;;;;;;5039124;28;20017;-79
2022/02/20 08:05:23;;;;;;;3.08;1.42;;;;;;;;;;5038970;28;20568;-80
2022/02/20 08:07:48;;;;;;;3.85;1.48;;;;;;;;;;5037897;28;20017;-80
2022/02/20 08:10:14;;;;;;;6.93;1.90;;;;;;;;;;5038111;28;20020;-80
2022/02/20 08:12:39;;;;;;;4.85;1.60;;;;;;;;;;5035444;28;20017;-79
2022/02/20 08:15:05;;;;;;;3.90;1.40;;;;;;;;;;5036798;28;20480;-79
2022/02/20 08:17:30;;;;;;;9.30;1.60;;;;;;;;;;5035889;28;20560;-80
2022/02/20 08:19:55;;;;;;;6.93;2.03;;;;;;;;;;5035694;28;20009;-80
2022/02/20 08:22:21;;;;;;;4.03;1.50;;;;;;;;;;5036603;28;20491;-79
2022/02/20 08:24:46;;;;;;;6.28;1.80;;;;;;;;;;5036185;28;20013;-80
2022/02/20 08:27:13;;;;;;;4.60;1.50;;;;;;;;;;5035764;28;20469;-78
2022/02/20 08:29:39;;;;;;;4.82;1.55;;;;;;;;;;5036729;28;20028;-80
2022/02/20 08:32:06;;;;;;;5.18;1.83;;;;;;;;;;5036763;28;20017;-79
2022/02/20 08:34:31;;;;;;;10.20;1.65;;;;;;;;;;5037373;28;20030;-79
2022/02/20 08:36:57;;;;;;;3.58;1.65;;;;;;;;;;5038668;28;20500;-79
2022/02/20 08:39:22;;;;;;;6.60;1.50;;;;;;;;;;5038827;28;20047;-80
2022/02/20 08:41:47;;;;;;;4.07;1.40;;;;;;;;;;5038470;28;20014;-80
2022/02/20 08:44:12;;;;;;;7.50;1.13;;;;;;;;;;5036757;28;20024;-80
2022/02/20 08:46:38;;;;;;;2.97;1.08;;;;;;;;;;5038290;28;20040;-80
2022/02/20 08:49:03;;;;;;;1.95;1.02;;;;;;;;;;5037680;28;20021;-80
2022/02/20 08:51:28;;;;;;;7.47;1.25;;;;;;;;;;5036796;28;20033;-80
2022/02/20 08:53:53;;;;;;;6.45;1.30;;;;;;;;;;5034454;28;20075;-80
2022/02/20 08:56:19;;;;;;;3.85;1.10;;;;;;;;;;5035510;28;20104;-79
2022/02/20 08:58:45;;;;;;;5.03;1.40;;;;;;;;;;5035439;28;20013;-80
2022/02/20 09:01:10;;;;;;;6.70;1.63;;;;;;;;;;5035803;28;20055;-80
2022/02/20 09:03:35;;;;;;;4.00;1.50;;;;;;;;;;5038069;28;20017;-80
2022/02/20 09:06:01;;;;;;;5.53;1.63;;;;;;;;;;5038497;28;20468;-80
2022/02/20 09:08:26;;;;;;;5.85;1.50;;;;;;;;;;5038956;28;20014;-80
2022/02/20 09:10:51;;;;;;;3.55;1.50;;;;;;;;;;5037258;28;20551;-80
2022/02/20 09:13:17;;;;;;;3.28;1.40;;;;;;;;;;5036328;28;20036;-79
2022/02/20 09:15:42;;;;;;;4.07;1.50;;;;;;;;;;5034836;28;20040;-79
2022/02/20 09:18:08;;;;;;;4.20;1.45;;;;;;;;;;5036639;28;20413;-79
2022/02/20 09:20:33;;;;;;;2.92;1.50;;;;;;;;;;5033873;28;20024;-80
2022/02/20 09:22:58;;;;;;;7.15;1.52;;;;;;;;;;5033203;28;20495;-79
2022/02/20 09:25:23;;;;;;;5.60;1.55;;;;;;;;;;5033822;28;20014;-79
2022/02/20 09:27:48;;;;;;;7.15;1.60;;;;;;;;;;5033643;28;20029;-79
2022/02/20 09:30:14;;;;;;;5.47;1.60;;;;;;;;;;5033160;28;20095;-79
2022/02/20 09:32:39;;;;;;;6.78;1.73;;;;;;;;;;5032911;28;20017;-79
2022/02/20 09:35:05;;;;;;;4.70;1.75;;;;;;;;;;5031958;28;20053;-79
2022/02/20 09:37:30;;;;;;;9.50;1.70;;;;;;;;;;5032878;28;20013;-80
2022/02/20 09:39:56;;;;;;;5.07;1.60;;;;;;;;;;5033103;28;20022;-79
2022/02/20 09:42:21;;;;;;;5.78;1.67;;;;;;;;;;5032983;28;20488;-79
2022/02/20 09:44:46;;;;;;;4.03;1.42;;;;;;;;;;5033515;28;20097;-79
2022/02/20 09:47:12;;;;;;;11.07;1.95;;;;;;;;;;5033187;28;20024;-78
2022/02/20 09:49:37;;;;;;;9.10;1.60;;;;;;;;;;5033059;28;20025;-79
2022/02/20 09:52:03;;;;;;;8.65;1.83;;;;;;;;;;5032721;28;20039;-78
2022/02/20 09:54:29;;;;;;;8.45;1.40;;;;;;;;;;5032697;28;20022;-78
2022/02/20 09:56:54;;;;;;;7.53;1.83;;;;;;;;;;5031148;28;20031;-79
2022/02/20 09:59:19;;;;;;;10.02;2.53;;;;;;;;;;5032445;28;20112;-79
2022/02/20 10:02:17;;;;;;;11.05;2.00;;;;;;;;;;5032381;28;20053;-79
2022/02/20 10:04:43;;;;;;;3.95;1.48;;;;;;;;;;5030899;28;20030;-79
2022/02/20 10:07:27;;;;;;;6.45;1.88;;;;;;;;;;5032867;28;20061;-79
2022/02/20 10:09:53;;;;;;;8.15;1.75;;;;;;;;;;5031206;28;20028;-79
2022/02/20 10:12:22;;;;;;;10.05;1.98;;;;;;;;;;5030994;28;20021;-79
2022/02/20 10:14:47;;;;;;;7.78;1.88;;;;;;;;;;5032358;28;20033;-79
2022/02/20 10:17:13;;;;;;;5.97;1.70;;;;;;;;;;5032324;28;20121;-79
2022/02/20 10:19:52;;;;;;;6.93;1.58;;;;;;;;;;5032331;28;20027;-79
2022/02/20 10:22:27;;;;;;;6.85;1.58;;;;;;;;;;5031860;28;20093;-80
2022/02/20 10:25:06;;;;;;;4.70;1.25;;;;;;;;;;5032570;28;20022;-79
2022/02/20 10:27:32;;;;;;;10.93;1.83;;;;;;;;;;5032724;28;20025;-79
2022/02/20 10:30:10;;;;;;;7.35;1.42;;;;;;;;;;5032269;28;20021;-78
2022/02/20 10:32:36;;;;;;;6.85;1.77;;;;;;;;;;5031836;28;20025;-79
2022/02/20 10:35:08;;;;;;;9.25;1.65;;;;;;;;;;5032438;28;20365;-80
2022/02/20 10:37:33;;;;;;;5.95;1.60;;;;;;;;;;5030676;28;20049;-79
2022/02/20 10:39:59;;;;;;;9.48;2.00;;;;;;;;;;5032344;28;20405;-79
2022/02/20 10:42:26;;;;;;;7.65;1.67;;;;;;;;;;5030425;28;20428;-79
2022/02/20 10:45:00;;;;;;;7.30;1.85;;;;;;;;;;5030847;28;20025;-79
2022/02/20 10:47:26;;;;;;;8.70;2.03;;;;;;;;;;5032295;28;20022;-80
2022/02/20 10:49:52;;;;;;;8.60;1.85;;;;;;;;;;5032793;28;20034;-79
2022/02/20 10:52:24;;;;;;;5.85;1.20;;;;;;;;;;5034115;28;20032;-79
2022/02/20 10:55:03;;;;;;;8.27;1.92;;;;;;;;;;5034498;28;20029;-79
2022/02/20 10:57:42;;;;;;;4.50;1.45;;;;;;;;;;5034266;28;20025;-79
2022/02/20 11:00:10;;;;;;;10.50;2.30;;;;;;;;;;5036021;28;20028;-79
2022/02/20 11:02:35;;;;;;;8.73;3.30;;;;;;;;;;5034181;28;20021;-79
2022/02/20 11:05:01;;;;;;;9.88;2.03;;;;;;;;;;5035361;28;20361;-80
2022/02/20 11:07:27;;;;;;;5.53;1.80;;;;;;;;;;5035653;28;20017;-79
2022/02/20 11:09:52;;;;;;;4.25;1.30;;;;;;;;;;5035953;28;20028;-79
2022/02/20 11:12:18;;;;;;;7.05;1.80;;;;;;;;;;5035426;28;20022;-80
2022/02/20 11:14:44;;;;;;;5.63;1.42;;;;;;;;;;5034998;28;20528;-79
2022/02/20 11:17:09;;;;;;;6.78;1.48;;;;;;;;;;5035395;28;20018;-79
2022/02/20 11:19:37;;;;;;;6.18;1.30;;;;;;;;;;5035360;28;20020;-79
2022/02/20 11:22:03;;;;;;;4.00;1.05;;;;;;;;;;5033643;28;20522;-79
2022/02/20 11:24:30;;;;;;;4.80;1.23;;;;;;;;;;5035123;28;20028;-80
2022/02/20 11:26:55;;;;;;;11.30;1.65;;;;;;;;;;5034299;28;20061;-79
2022/02/20 11:29:20;;;;;;;5.45;1.55;;;;;;;;;;5034724;28;20056;-79
2022/02/20 11:31:46;;;;;;;7.78;1.77;;;;;;;;;;5033364;28;20025;-79
2022/02/20 11:34:11;;;;;;;6.32;1.15;;;;;;;;;;5033440;28;20400;-79
2022/02/20 11:36:37;;;;;;;4.88;1.00;;;;;;;;;;5033865;28;20419;-79
2022/02/20 11:39:07;;;;;;;5.50;1.10;;;;;;;;;;5035135;28;20020;-79
2022/02/20 11:41:32;;;;;;;4.65;1.23;;;;;;;;;;5035043;28;20473;-78
2022/02/20 11:44:11;;;;;;;6.85;1.40;;;;;;;;;;5034410;28;20033;-78
2022/02/20 11:47:05;;;;;;;2.58;1.20;;;;;;;;;;5033518;28;20108;-79
2022/02/20 11:49:31;;;;;;;4.10;1.92;;;;;;;;;;5034890;28;20057;-79
2022/02/20 11:51:58;;;;;;;7.28;2.60;;;;;;;;;;5034928;28;20025;-79
2022/02/20 11:54:24;;;;;;;2.88;1.13;;;;;;;;;;5034315;28;20017;-79
2022/02/20 11:57:07;;;;;;;8.30;1.40;;;;;;;;;;5034250;28;20037;-78
2022/02/20 11:59:33;;;;;;;3.92;1.45;;;;;;;;;;5034401;28;20014;-79
2022/02/20 12:02:12;;;;;;;5.60;1.30;;;;;;;;;;5033839;28;20013;-78
2022/02/20 12:04:55;;;;;;;6.38;1.02;;;;;;;;;;5034133;28;20014;-78
2022/02/20 12:07:26;;;;;;;3.13;1.20;;;;;;;;;;5032781;28;20307;-78
2022/02/20 12:10:11;;;;;;;2.50;0.98;;;;;;;;;;5034229;28;20028;-78
2022/02/20 12:12:37;;;;;;;6.85;0.95;;;;;;;;;;5033470;28;20025;-78
2022/02/20 12:15:20;;;;;;;1.35;0.70;;;;;;;;;;5034142;28;20032;-78
2022/02/20 12:18:02;;;;;;;1.42;0.63;;;;;;;;;;5034039;28;20096;-78
2022/02/20 12:20:49;;;;;;;2.20;0.80;;;;;;;;;;5033870;28;20100;-79
2022/02/20 12:23:26;;;;;;;3.13;0.73;;;;;;;;;;5033635;28;20469;-78
2022/02/20 12:25:52;;;;;;;1.83;1.08;;;;;;;;;;5033986;28;20469;-78
2022/02/20 12:28:37;;;;;;;2.70;1.00;;;;;;;;;;5033983;28;20014;-78
2022/02/20 12:31:14;;;;;;;1.52;0.70;;;;;;;;;;5033556;28;20117;-78
2022/02/20 12:33:46;;;;;;;2.55;1.02;;;;;;;;;;5033916;28;20021;-78
2022/02/20 12:36:13;;;;;;;1.27;0.60;;;;;;;;;;5032602;28;20120;-78
2022/02/20 12:38:48;;;;;;;2.45;0.90;;;;;;;;;;5033379;28;20075;-78
2022/02/20 12:41:13;;;;;;;1.45;0.70;;;;;;;;;;5034344;28;20028;-78
2022/02/20 12:43:39;;;;;;;1.08;0.50;;;;;;;;;;5033152;28;20389;-79
2022/02/20 12:46:04;;;;;;;2.13;0.77;;;;;;;;;;5033836;28;20053;-78
2022/02/20 12:48:29;;;;;;;0.70;0.40;;;;;;;;;;5033971;28;20495;-78
2022/02/20 12:50:56;;;;;;;1.48;0.50;;;;;;;;;;5033743;28;20021;-79
2022/02/20 12:53:24;;;;;;;0.47;0.30;;;;;;;;;;5033051;28;20021;-78
2022/02/20 12:55:50;;;;;;;0.80;0.50;;;;;;;;;;5033445;28;20052;-79
2022/02/20 12:58:17;;;;;;;1.73;0.40;;;;;;;;;;5032460;28;20148;-79
2022/02/20 13:00:43;;;;;;;1.58;0.50;;;;;;;;;;5033702;28;20068;-78
2022/02/20 13:03:13;;;;;;;1.15;0.50;;;;;;;;;;5033579;28;20024;-78
2022/02/20 13:05:39;;;;;;;1.65;0.50;;;;;;;;;;5032621;28;20026;-78
2022/02/20 13:08:07;;;;;;;1.45;0.38;;;;;;;;;;5032219;28;20032;-79
2022/02/20 13:10:40;;;;;;;1.00;0.40;;;;;;;;;;5032043;28;20072;-79
2022/02/20 13:13:10;;;;;;;0.85;0.50;;;;;;;;;;5030882;28;20040;-79
2022/02/20 13:15:37;;;;;;;0.52;0.20;;;;;;;;;;5031924;28;20013;-79
2022/02/20 13:18:04;;;;;;;0.82;0.40;;;;;;;;;;5032457;28;20028;-79
2022/02/20 13:20:32;;;;;;;0.80;0.35;;;;;;;;;;5033641;28;20013;-79
2022/02/20 13:22:58;;;;;;;1.05;0.40;;;;;;;;;;5033305;28;20018;-78
2022/02/20 13:25:24;;;;;;;1.65;0.47;;;;;;;;;;5033743;28;20025;-79
2022/02/20 13:27:50;;;;;;;0.88;0.20;;;;;;;;;;5033544;28;20022;-79
2022/02/20 13:30:25;;;;;;;1.50;0.60;;;;;;;;;;5032047;28;20052;-79
2022/02/20 13:32:51;;;;;;;0.98;0.40;;;;;;;;;;5032921;28;20027;-79
2022/02/20 13:35:28;;;;;;;0.70;0.30;;;;;;;;;;5033413;28;20021;-80
2022/02/20 13:37:53;;;;;;;1.30;0.60;;;;;;;;;;5032980;28;20167;-80
2022/02/20 13:40:19;;;;;;;0.75;0.40;;;;;;;;;;5031506;28;20496;-79
2022/02/20 13:42:57;;;;;;;0.80;0.35;;;;;;;;;;5031168;28;20431;-79
2022/02/20 13:45:22;;;;;;;1.17;0.28;;;;;;;;;;5032509;28;20025;-79
2022/02/20 13:47:47;;;;;;;0.47;0.30;;;;;;;;;;5032381;28;20029;-79
2022/02/20 13:50:17;;;;;;;2.00;0.73;;;;;;;;;;5032356;28;20399;-79
2022/02/20 13:52:44;;;;;;;0.63;0.22;;;;;;;;;;5032144;28;20034;-79
2022/02/20 13:55:19;;;;;;;1.63;0.32;;;;;;;;;;5032487;28;20037;-79
2022/02/20 13:57:45;;;;;;;0.75;0.35;;;;;;;;;;5032448;28;20021;-79
2022/02/20 14:00:11;;;;;;;1.70;0.73;;;;;;;;;;5030915;28;20028;-79
2022/02/20 14:02:36;;;;;;;3.58;0.40;;;;;;;;;;5032117;28;20022;-79
2022/02/20 14:05:06;;;;;;;0.35;0.20;;;;;;;;;;5032327;28;20492;-79
2022/02/20 14:07:31;;;;;;;3.00;0.98;;;;;;;;;;5032506;28;20469;-79
2022/02/20 14:09:57;;;;;;;1.77;0.90;;;;;;;;;;5032194;28;20032;-79
2022/02/20 14:12:22;;;;;;;0.30;0.22;;;;;;;;;;5031807;28;20021;-79
2022/02/20 14:15:02;;;;;;;1.88;0.98;;;;;;;;;;5030671;28;20048;-79
2022/02/20 14:17:46;;;;;;;1.08;0.60;;;;;;;;;;5032080;28;20052;-79
2022/02/20 14:20:12;;;;;;;0.90;0.38;;;;;;;;;;5031718;28;20030;-79
2022/02/20 14:22:38;;;;;;;3.05;0.40;;;;;;;;;;5031925;28;20017;-79
2022/02/20 14:25:05;;;;;;;0.93;0.45;;;;;;;;;;5031752;28;20543;-79
2022/02/20 14:27:31;;;;;;;2.25;0.43;;;;;;;;;;5036313;28;20085;-80
2022/02/20 14:29:56;;;;;;;1.10;0.30;;;;;;;;;;5034839;28;20029;-80
2022/02/20 14:32:23;;;;;;;0.60;0.50;;;;;;;;;;5035582;28;20064;-79
2022/02/20 14:34:54;;;;;;;0.52;0.32;;;;;;;;;;5035920;28;20035;-79
2022/02/20 14:37:20;;;;;;;1.70;0.60;;;;;;;;;;5036096;28;20029;-79
2022/02/20 14:39:45;;;;;;;2.33;0.68;;;;;;;;;;5034792;28;20026;-79
2022/02/20 14:42:10;;;;;;;2.75;0.50;;;;;;;;;;5035816;28;20076;-79
2022/02/20 14:44:35;;;;;;;2.35;0.57;;;;;;;;;;5036024;28;20009;-79
2022/02/20 14:47:01;;;;;;;0.47;0.22;;;;;;;;;;5036696;28;20045;-79
2022/02/20 14:49:26;;;;;;;0.63;0.43;;;;;;;;;;5036386;28;20388;-78
2022/02/20 14:51:51;;;;;;;0.93;0.40;;;;;;;;;;5036178;28;20028;-79
2022/02/20 14:54:18;;;;;;;0.20;0.20;;;;;;;;;;5035563;28;20116;-79
2022/02/20 14:56:43;;;;;;;1.17;0.40;;;;;;;;;;5035590;28;20068;-79
2022/02/20 14:59:09;;;;;;;0.73;0.20;;;;;;;;;;5035432;28;20032;-79
2022/02/20 15:01:34;;;;;;;0.70;0.30;;;;;;;;;;5035587;28;20024;-79
2022/02/20 15:04:03;;;;;;;1.08;0.40;;;;;;;;;;5035233;28;20021;-79
2022/02/20 15:06:28;;;;;;;1.17;0.40;;;;;;;;;;5035460;28;20021;-79
2022/02/20 15:08:53;;;;;;;2.70;1.10;;;;;;;;;;5035506;28;20539;-79
2022/02/20 15:11:18;;;;;;;1.00;0.35;;;;;;;;;;5035350;28;20254;-79
2022/02/20 15:13:44;;;;;;;0.43;0.20;;;;;;;;;;5034597;28;20128;-80
2022/02/20 15:16:09;;;;;;;1.20;0.40;;;;;;;;;;5035065;28;20028;-79
2022/02/20 15:18:35;;;;;;;0.68;0.28;;;;;;;;;;5033995;28;20024;-79